Time;durP1;ratioP1;P1;durP2;ratioP2;P2;SDS_P1;SDS_P2;PMS_P1;PMS_P2;Temp;Humidity;BMP_temperature;BMP_pressure;BME280_temperature;BME280_humidity;BME280_pressure;Samples;Min_cycle;Max_cycle;Signal;HPM_P1;HPM_P2
2021/03/26 00:00:34;;;;;;;33.92;19.15;;;;;;;6.24;69.14;101940.91;5027534;28;20053;-73
2021/03/26 00:03:00;;;;;;;41.53;20.02;;;;;;;6.26;69.84;101933.81;5028258;28;20072;-74
2021/03/26 00:05:27;;;;;;;44.13;21.20;;;;;;;6.30;71.24;101943.13;5029645;28;20771;-73
2021/03/26 00:07:53;;;;;;;52.38;24.42;;;;;;;6.36;72.74;101943.72;5034533;28;20080;-73
2021/03/26 00:10:20;;;;;;;40.38;21.70;;;;;;;6.34;71.99;101944.63;5033287;28;20057;-73
2021/03/26 00:12:46;;;;;;;41.38;22.38;;;;;;;6.36;71.42;101938.50;5022514;28;20061;-73
2021/03/26 00:15:12;;;;;;;47.75;23.52;;;;;;;6.35;72.15;101940.28;5023847;28;20065;-73
2021/03/26 00:17:39;;;;;;;47.60;22.95;;;;;;;6.27;70.81;101927.69;5024571;28;20053;-73
2021/03/26 00:20:06;;;;;;;50.78;25.17;;;;;;;6.30;72.26;101935.31;5033402;28;20128;-73
2021/03/26 00:22:32;;;;;;;46.50;24.38;;;;;;;6.27;72.03;101930.31;5018448;28;20062;-74
2021/03/26 00:24:58;;;;;;;56.35;25.23;;;;;;;6.29;72.61;101920.63;5036046;28;20067;-74
2021/03/26 00:27:24;;;;;;;53.50;26.58;;;;;;;6.33;73.97;101919.50;5011213;28;20816;-74
2021/03/26 00:29:50;;;;;;;57.60;28.63;;;;;;;6.32;74.77;101920.44;5015091;28;20428;-74
2021/03/26 00:32:17;;;;;;;56.63;26.42;;;;;;;6.34;74.26;101915.97;5016205;28;20111;-74
2021/03/26 00:34:43;;;;;;;56.10;27.38;;;;;;;6.34;74.71;101913.34;5032461;28;20092;-74
2021/03/26 00:37:10;;;;;;;53.67;26.73;;;;;;;6.34;74.80;101915.97;5016295;28;20066;-74
2021/03/26 00:39:36;;;;;;;52.88;26.58;;;;;;;6.33;74.76;101914.31;5026281;28;20057;-74
2021/03/26 00:42:02;;;;;;;56.45;26.92;;;;;;;6.27;75.58;101890.34;5039093;28;20065;-73
2021/03/26 00:44:28;;;;;;;56.88;28.35;;;;;;;6.33;76.06;101905.63;5022534;28;20080;-73
2021/03/26 00:46:54;;;;;;;60.33;28.90;;;;;;;6.36;76.66;101904.63;5043870;28;20549;-74
2021/03/26 00:49:20;;;;;;;60.53;28.92;;;;;;;6.33;76.53;101903.88;5031187;28;20057;-74
2021/03/26 00:51:46;;;;;;;62.83;31.17;;;;;;;6.34;76.07;101897.72;5023119;28;20068;-73
2021/03/26 00:54:16;;;;;;;57.38;27.73;;;;;;;6.36;75.27;101912.44;5011684;28;20065;-74
2021/03/26 00:56:42;;;;;;;64.22;30.92;;;;;;;6.33;77.03;101905.63;5038631;28;20466;-74
2021/03/26 00:59:08;;;;;;;59.78;29.27;;;;;;;6.33;76.36;101897.81;5016062;28;20149;-75
2021/03/26 01:01:35;;;;;;;57.42;28.20;;;;;;;6.35;76.62;101895.97;5028173;28;20448;-75
2021/03/26 01:04:01;;;;;;;63.50;30.30;;;;;;;6.30;77.79;101893.63;5042777;28;20277;-75
2021/03/26 01:06:27;;;;;;;61.35;29.48;;;;;;;6.26;78.02;101889.53;5017015;28;20078;-75
2021/03/26 01:08:53;;;;;;;61.78;30.40;;;;;;;6.33;78.28;101893.44;5036123;28;20073;-75
2021/03/26 01:11:22;;;;;;;64.63;31.02;;;;;;;6.32;78.51;101886.56;5015770;28;20065;-76
2021/03/26 01:13:48;;;;;;;71.53;31.58;;;;;;;6.37;78.49;101886.28;5040914;28;20064;-75
2021/03/26 01:16:16;;;;;;;63.78;30.48;;;;;;;6.36;77.82;101886.38;5018860;28;20072;-75
2021/03/26 01:18:44;;;;;;;61.22;29.73;;;;;;;6.42;77.41;101883.41;5028436;28;20060;-75
2021/03/26 01:21:18;;;;;;;60.60;30.42;;;;;;;6.42;77.44;101886.00;5019505;28;20061;-75
2021/03/26 01:23:44;;;;;;;71.68;30.85;;;;;;;6.39;78.53;101875.75;5017346;28;20638;-75
2021/03/26 01:26:11;;;;;;;63.47;30.33;;;;;;;6.43;77.80;101878.09;5021762;28;20068;-76
2021/03/26 01:28:37;;;;;;;55.65;29.83;;;;;;;6.40;77.69;101878.28;5017377;28;20053;-76
2021/03/26 01:31:03;;;;;;;62.15;30.55;;;;;;;6.42;77.43;101873.81;5024626;28;20711;-75
2021/03/26 01:33:29;;;;;;;62.38;30.13;;;;;;;6.44;76.98;101876.31;5003778;28;20435;-75
2021/03/26 01:35:57;;;;;;;57.30;29.33;;;;;;;6.43;76.72;101874.63;5017612;28;20065;-76
2021/03/26 01:38:24;;;;;;;64.03;30.20;;;;;;;6.42;77.14;101868.59;5016612;28;20057;-75
2021/03/26 01:40:55;;;;;;;58.63;29.38;;;;;;;6.45;76.39;101872.75;5023970;28;20057;-75
2021/03/26 01:43:30;;;;;;;52.42;26.73;;;;;;;6.40;75.72;101870.44;5005144;28;20058;-75
2021/03/26 01:45:58;;;;;;;49.20;25.80;;;;;;;6.39;74.80;101871.41;5024233;28;20071;-75
2021/03/26 01:48:33;;;;;;;52.97;27.83;;;;;;;6.37;75.11;101865.44;5032218;28;20064;-75
2021/03/26 01:51:02;;;;;;;53.72;27.45;;;;;;;6.37;74.26;101860.22;5023079;28;20065;-75
2021/03/26 01:53:28;;;;;;;55.65;28.63;;;;;;;6.38;73.88;101861.88;5017189;28;20072;-76
2021/03/26 01:55:57;;;;;;;54.33;28.02;;;;;;;6.40;73.75;101856.59;5003124;28;20073;-76
2021/03/26 01:58:28;;;;;;;50.28;27.25;;;;;;;6.41;74.05;101851.28;5007301;28;20085;-76
2021/03/26 02:00:57;;;;;;;50.35;25.98;;;;;;;6.43;73.66;101853.78;5003867;28;20126;-77
2021/03/26 02:03:31;;;;;;;52.92;29.08;;;;;;;6.42;74.99;101839.91;5007782;28;20112;-76
2021/03/26 02:06:00;;;;;;;63.65;29.33;;;;;;;6.43;74.06;101849.44;4997494;28;20193;-76
2021/03/26 02:08:31;;;;;;;56.30;27.40;;;;;;;6.41;73.98;101838.25;5010869;28;20557;-76
2021/03/26 02:11:01;;;;;;;57.08;29.10;;;;;;;6.40;74.08;101833.97;5033443;28;20061;-76
2021/03/26 02:13:30;;;;;;;61.10;27.85;;;;;;;6.45;74.27;101836.28;4995947;28;20092;-76
2021/03/26 02:15:58;;;;;;;54.58;26.90;;;;;;;6.41;73.60;101833.03;5023828;28;20065;-75
2021/03/26 02:18:32;;;;;;;44.88;24.77;;;;;;;6.43;73.38;101838.13;5018418;28;20118;-76
2021/03/26 02:21:07;;;;;;;53.50;26.05;;;;;;;6.36;72.88;101834.25;5007019;28;20072;-75
2021/03/26 02:23:37;;;;;;;54.53;25.98;;;;;;;6.32;73.07;101833.59;4998415;28;20072;-76
2021/03/26 02:26:23;;;;;;;49.28;24.33;;;;;;;6.27;72.45;101825.22;5018040;28;20556;-75
2021/03/26 02:28:50;;;;;;;47.33;24.92;;;;;;;6.26;72.44;101827.00;5011622;28;20068;-76
2021/03/26 02:31:17;;;;;;;53.95;26.30;;;;;;;6.26;73.01;101832.19;5022060;28;20061;-75
2021/03/26 02:33:45;;;;;;;53.05;25.45;;;;;;;6.23;72.14;101829.78;5014534;28;20111;-77
2021/03/26 02:36:16;;;;;;;53.70;23.20;;;;;;;6.23;72.35;101831.56;5005329;28;20061;-76
2021/03/26 02:38:48;;;;;;;50.08;25.63;;;;;;;6.19;72.85;101822.25;5038751;28;20055;-76
2021/03/26 02:41:41;;;;;;;48.13;24.33;;;;;;;6.18;72.33;101815.38;4998310;28;20573;-76
2021/03/26 02:44:30;;;;;;;43.70;22.33;;;;;;;6.09;72.31;101816.75;5024324;28;20103;-76
2021/03/26 02:47:18;;;;;;;49.22;24.35;;;;;;;6.01;72.46;101814.63;5017041;28;20163;-76
2021/03/26 02:49:54;;;;;;;43.33;22.87;;;;;;;5.97;72.12;101809.69;5013008;28;20574;-76
2021/03/26 02:52:32;;;;;;;44.25;23.30;;;;;;;5.94;72.09;101813.28;5035347;28;20111;-76
2021/03/26 02:55:04;;;;;;;47.95;24.88;;;;;;;5.88;72.41;101811.03;5027867;28;20053;-76
2021/03/26 02:57:58;;;;;;;44.15;23.65;;;;;;;5.81;72.09;101815.78;5014947;28;20053;-76
2021/03/26 03:00:31;;;;;;;54.00;26.23;;;;;;;5.68;72.84;101812.22;5023003;28;20056;-76
2021/03/26 03:03:00;;;;;;;50.80;24.92;;;;;;;5.66;73.32;101814.06;5012875;28;20057;-76
2021/03/26 03:05:38;;;;;;;53.65;24.33;;;;;;;5.62;73.41;101812.59;5023847;28;20072;-76
2021/03/26 03:08:22;;;;;;;50.40;24.63;;;;;;;5.61;72.61;101816.13;5018861;28;20049;-77
2021/03/26 03:10:54;;;;;;;46.88;24.42;;;;;;;5.62;73.16;101817.78;5006427;28;20110;-76
2021/03/26 03:13:38;;;;;;;48.10;25.63;;;;;;;5.65;73.68;101815.03;5036938;28;20076;-76
2021/03/26 03:16:30;;;;;;;51.90;25.63;;;;;;;5.62;73.17;101807.38;5031321;28;20061;-77
2021/03/26 03:19:29;;;;;;;47.60;24.13;;;;;;;5.65;73.52;101808.03;5010511;28;20060;-77
2021/03/26 03:22:02;;;;;;;56.80;26.10;;;;;;;5.67;73.48;101803.56;5010140;28;20131;-76
2021/03/26 03:24:36;;;;;;;55.10;26.45;;;;;;;5.65;73.71;101804.59;4998825;28;20073;-76
2021/03/26 03:27:27;;;;;;;56.25;26.77;;;;;;;5.68;73.29;101805.22;5019519;28;20576;-76
2021/03/26 03:30:17;;;;;;;49.65;26.25;;;;;;;5.68;73.54;101809.63;5000700;28;20107;-78
2021/03/26 03:33:00;;;;;;;53.42;26.90;;;;;;;5.68;73.66;101799.19;5016115;28;20053;-78
2021/03/26 03:35:39;;;;;;;51.15;26.50;;;;;;;5.70;74.26;101797.34;5026858;28;20499;-78
2021/03/26 03:38:16;;;;;;;;;;;;;;;5.73;74.56;101798.00;5018742;28;20053;-77
2021/03/26 03:41:02;;;;;;;54.95;26.27;;;;;;;5.74;74.46;101797.09;5030749;28;19931;-78
2021/03/26 03:43:37;;;;;;;53.20;27.83;;;;;;;5.78;74.63;101796.88;5029361;28;20120;-78
2021/03/26 03:46:04;;;;;;;56.33;25.10;;;;;;;5.79;74.28;101799.41;5025565;28;20163;-78
2021/03/26 03:48:42;;;;;;;55.00;28.38;;;;;;;5.82;74.64;101785.34;5033302;28;20065;-78
2021/03/26 03:51:19;;;;;;;59.75;28.48;;;;;;;5.88;75.44;101785.84;5012247;28;20416;-78
2021/03/26 03:53:53;;;;;;;57.30;28.00;;;;;;;5.92;76.11;101789.13;5022487;28;20065;-77
2021/03/26 03:56:42;;;;;;;59.45;29.58;;;;;;;5.99;76.50;101787.00;5025400;28;20135;-77
2021/03/26 03:59:11;;;;;;;;;;;;;;;6.08;77.24;101779.47;5015423;28;20065;-76
2021/03/26 04:02:00;;;;;;;74.93;32.53;;;;;;;6.14;78.55;101779.06;5025145;28;19925;-76
2021/03/26 04:04:39;;;;;;;70.63;32.38;;;;;;;6.22;78.26;101778.63;5009044;28;20097;-76
2021/03/26 04:07:13;;;;;;;72.68;34.33;;;;;;;6.34;79.57;101782.22;5013547;28;20786;-76
2021/03/26 04:09:49;;;;;;;73.07;33.42;;;;;;;6.39;79.86;101774.09;5010004;28;20050;-76
2021/03/26 04:12:25;;;;;;;76.70;33.60;;;;;;;6.50;79.76;101772.50;5032115;28;20111;-76
2021/03/26 04:15:15;;;;;;;69.35;34.30;;;;;;;6.59;79.94;101776.31;5004211;28;20554;-78
2021/03/26 04:17:55;;;;;;;71.68;34.53;;;;;;;6.67;78.87;101773.22;5011067;28;20062;-76
2021/03/26 04:20:37;;;;;;;74.82;33.17;;;;;;;6.72;78.88;101760.72;4991578;28;20149;-77
2021/03/26 04:23:15;;;;;;;68.43;31.15;;;;;;;6.74;79.25;101758.84;5027631;28;20147;-76
2021/03/26 04:25:48;;;;;;;75.47;33.85;;;;;;;6.82;78.72;101754.00;5017245;28;20061;-78
2021/03/26 04:28:22;;;;;;;74.55;33.92;;;;;;;6.87;78.68;101764.94;5021111;28;20111;-77
2021/03/26 04:30:54;;;;;;;72.47;32.55;;;;;;;6.95;78.21;101761.84;5008207;28;20056;-77
2021/03/26 04:33:22;;;;;;;68.65;30.73;;;;;;;6.97;78.68;101769.56;5026177;28;20053;-77
2021/03/26 04:35:50;;;;;;;67.90;31.63;;;;;;;7.01;77.80;101758.00;5027920;28;20061;-77
2021/03/26 04:38:25;;;;;;;66.60;32.90;;;;;;;7.07;78.65;101763.63;5015620;28;20063;-77
2021/03/26 04:40:59;;;;;;;61.47;29.92;;;;;;;7.07;77.88;101753.22;5029684;28;20432;-77
2021/03/26 04:43:36;;;;;;;74.65;31.98;;;;;;;7.10;77.72;101750.41;5021450;28;20155;-77
2021/03/26 04:46:15;;;;;;;58.85;28.63;;;;;;;7.16;77.34;101741.34;5041764;28;20158;-76
2021/03/26 04:48:52;;;;;;;61.88;29.75;;;;;;;7.24;76.97;101748.66;5038823;28;20479;-76
2021/03/26 04:51:25;;;;;;;65.63;31.00;;;;;;;7.23;77.09;101745.22;5010790;28;20124;-76
2021/03/26 04:54:00;;;;;;;67.38;31.17;;;;;;;7.27;77.29;101745.84;5019882;28;20064;-76
2021/03/26 04:56:32;;;;;;;62.33;28.85;;;;;;;7.27;77.14;101732.78;5027791;28;20064;-76
2021/03/26 04:59:02;;;;;;;65.68;30.95;;;;;;;7.31;77.50;101749.91;5017011;28;20053;-76
2021/03/26 05:01:31;;;;;;;65.22;31.48;;;;;;;7.35;76.62;101742.72;5021328;28;20119;-76
2021/03/26 05:04:06;;;;;;;68.50;31.35;;;;;;;7.40;76.79;101745.88;5026565;28;20060;-76
2021/03/26 05:07:05;;;;;;;65.93;31.58;;;;;;;7.42;76.63;101750.03;5041051;28;20061;-76
2021/03/26 05:09:36;;;;;;;68.22;30.13;;;;;;;7.47;76.85;101742.75;5022559;28;20061;-76
2021/03/26 05:12:08;;;;;;;64.78;30.25;;;;;;;7.48;76.37;101739.19;5043312;28;20954;-76
2021/03/26 05:14:40;;;;;;;69.28;31.67;;;;;;;7.49;76.65;101735.66;5005989;28;20059;-76
2021/03/26 05:17:20;;;;;;;68.30;32.20;;;;;;;7.52;76.24;101731.97;5019310;28;20123;-76
2021/03/26 05:19:49;;;;;;;65.55;29.98;;;;;;;7.51;76.00;101733.75;5014004;28;20081;-76
2021/03/26 05:22:31;;;;;;;69.65;31.30;;;;;;;7.57;76.08;101727.28;5025319;28;20604;-76
2021/03/26 05:25:06;;;;;;;74.75;32.75;;;;;;;7.57;76.00;101727.28;5026611;28;20099;-77
2021/03/26 05:27:33;;;;;;;67.50;31.48;;;;;;;7.59;75.84;101735.84;5026000;28;20061;-76
2021/03/26 05:29:59;;;;;;;67.55;31.60;;;;;;;7.61;75.65;101731.38;5027542;28;20080;-76
2021/03/26 05:32:36;;;;;;;67.05;31.30;;;;;;;7.59;75.89;101730.63;5021555;28;20135;-76
2021/03/26 05:35:14;;;;;;;70.15;32.40;;;;;;;7.57;76.19;101729.06;5026310;28;20696;-76
2021/03/26 05:37:44;;;;;;;72.60;30.23;;;;;;;7.59;76.07;101730.63;5027011;28;20061;-76
2021/03/26 05:40:46;;;;;;;71.10;30.25;;;;;;;7.62;76.00;101733.00;5029186;28;20057;-77
2021/03/26 05:43:29;;;;;;;68.97;30.90;;;;;;;7.59;76.10;101724.59;4987076;28;20072;-77
2021/03/26 05:46:49;;;;;;;61.38;27.55;;;;;;;7.63;75.80;101737.31;5016119;28;20493;-76
2021/03/26 05:49:31;;;;;;;67.35;29.67;;;;;;;7.67;75.60;101735.34;4942192;28;20579;-77
2021/03/26 05:52:21;;;;;;;66.65;28.35;;;;;;;7.69;75.73;101728.22;4948765;28;20071;-76
2021/03/26 05:55:34;;;;;;;63.25;30.33;;;;;;;7.72;75.12;101733.22;5002053;28;20144;-76
2021/03/26 05:58:10;;;;;;;63.80;28.60;;;;;;;7.73;75.29;101735.75;5030103;28;20049;-75
2021/03/26 06:00:54;;;;;;;61.88;27.88;;;;;;;7.78;74.72;101735.44;5022105;28;20107;-77
2021/03/26 06:03:46;;;;;;;65.25;28.98;;;;;;;7.80;74.95;101733.56;5014804;28;20127;-76
2021/03/26 06:06:32;;;;;;;70.90;30.92;;;;;;;7.79;75.14;101726.66;5018217;28;20096;-76
2021/03/26 06:09:29;;;;;;;68.20;30.67;;;;;;;7.79;74.94;101734.47;5020351;28;20111;-77
2021/03/26 06:12:18;;;;;;;74.57;31.50;;;;;;;7.85;74.75;101728.00;4996958;28;20069;-76
2021/03/26 06:15:02;;;;;;;67.20;31.30;;;;;;;7.78;74.57;101726.75;5033212;28;20068;-76
2021/03/26 06:17:37;;;;;;;67.25;30.40;;;;;;;7.82;74.91;101730.81;5009671;28;20061;-76
2021/03/26 06:20:19;;;;;;;65.60;31.70;;;;;;;7.82;74.53;101728.19;5012117;28;20075;-75
2021/03/26 06:23:04;;;;;;;77.75;33.20;;;;;;;7.84;74.77;101721.94;5022675;28;20061;-75
2021/03/26 06:25:40;;;;;;;64.95;30.48;;;;;;;7.82;74.98;101726.44;5026670;28;20095;-75
2021/03/26 06:28:22;;;;;;;72.72;31.67;;;;;;;7.85;74.69;101717.56;5019922;28;20054;-75
2021/03/26 06:31:12;;;;;;;65.40;31.38;;;;;;;7.87;74.89;101713.06;5024674;28;20057;-76
2021/03/26 06:34:39;;;;;;;74.07;33.93;;;;;;;7.89;74.86;101719.84;5002822;28;20054;-75
2021/03/26 06:37:27;;;;;;;76.10;31.63;;;;;;;7.91;74.75;101717.94;5005114;28;20054;-75
2021/03/26 06:40:14;;;;;;;69.00;34.10;;;;;;;7.96;74.89;101715.03;4999332;28;20053;-76
2021/03/26 06:43:06;;;;;;;72.38;33.72;;;;;;;7.96;74.80;101708.94;5019578;28;20061;-76
2021/03/26 06:45:53;;;;;;;67.95;33.58;;;;;;;8.00;74.59;101718.28;5020063;28;20053;-76
2021/03/26 06:48:50;;;;;;;74.15;32.13;;;;;;;8.01;74.31;101707.69;5041500;28;20061;-75
2021/03/26 06:51:43;;;;;;;79.32;34.65;;;;;;;8.04;73.65;101709.28;5009731;28;20057;-76
2021/03/26 06:54:34;;;;;;;67.88;32.50;;;;;;;8.10;73.98;101707.03;5036493;28;20970;-76
2021/03/26 06:57:15;;;;;;;74.03;33.10;;;;;;;8.14;73.98;101706.84;5022304;28;20083;-76
2021/03/26 07:00:21;;;;;;;79.38;34.30;;;;;;;8.14;73.68;101701.63;5019793;28;20096;-76
2021/03/26 07:03:24;;;;;;;75.72;33.58;;;;;;;8.19;73.50;101702.94;4977642;28;20120;-79
2021/03/26 07:06:28;;;;;;;74.22;33.42;;;;;;;8.23;73.82;101704.41;5018097;28;20060;-76
2021/03/26 07:09:15;;;;;;;70.90;33.10;;;;;;;8.28;73.50;101699.66;4996951;28;20402;-76
2021/03/26 07:12:31;;;;;;;70.25;32.03;;;;;;;8.27;73.04;101705.88;5014179;28;20049;-76
2021/03/26 07:15:10;;;;;;;67.60;33.25;;;;;;;8.37;73.44;101702.56;5003201;28;20101;-76
2021/03/26 07:17:49;;;;;;;86.78;32.92;;;;;;;8.38;72.90;101714.72;5018524;28;20492;-76
2021/03/26 07:20:38;;;;;;;74.05;33.38;;;;;;;8.37;72.49;101710.41;5000542;28;20065;-76
2021/03/26 07:23:25;;;;;;;70.50;32.78;;;;;;;8.39;72.65;101712.00;5014999;28;20050;-77
2021/03/26 07:26:15;;;;;;;73.03;32.77;;;;;;;8.45;72.39;101710.75;5012095;28;20057;-76
2021/03/26 11:16:40;;;;;;;22.50;5.88;;;;;;;13.09;48.69;101600.72;4986864;28;20412;-75
2021/03/26 11:19:25;;;;;;;13.68;4.25;;;;;;;12.96;46.93;101587.06;5017971;28;20054;-76
2021/03/26 11:29:42;;;;;;;14.95;4.63;;;;;;;13.13;46.82;101562.59;5001908;28;20099;-76
2021/03/26 11:32:24;;;;;;;13.82;4.53;;;;;;;13.18;46.94;101568.25;5016517;28;20139;-77
2021/03/26 11:35:05;;;;;;;14.50;4.57;;;;;;;13.22;47.07;101559.06;4999066;28;20062;-77
2021/03/26 11:38:01;;;;;;;15.43;4.93;;;;;;;13.25;47.60;101556.16;5007487;28;20167;-76
2021/03/26 11:40:45;;;;;;;15.38;5.03;;;;;;;13.21;47.27;101544.25;5009478;28;20134;-75
2021/03/26 11:43:17;;;;;;;17.17;4.95;;;;;;;13.16;47.71;101549.13;5012073;28;20112;-77
2021/03/26 11:45:55;;;;;;;16.10;5.55;;;;;;;13.25;47.66;101560.63;5021303;28;20060;-74
2021/03/26 11:48:49;;;;;;;12.70;5.20;;;;;;;13.16;47.97;101540.41;5017654;28;20061;-76
2021/03/26 11:51:36;;;;;;;17.15;6.18;;;;;;;13.20;47.55;101536.50;5021909;28;20089;-74
2021/03/26 11:54:25;;;;;;;12.52;4.38;;;;;;;13.38;47.23;101544.47;5018191;28;20508;-75
2021/03/26 11:57:11;;;;;;;;;;;;;;;13.71;46.74;101534.28;5032462;28;20142;-75
2021/03/26 12:00:14;;;;;;;13.50;5.72;;;;;;;14.27;45.89;101527.88;5014737;28;19925;-75
2021/03/26 12:03:16;;;;;;;12.40;4.97;;;;;;;14.54;44.76;101515.50;5017196;28;20628;-76
2021/03/26 12:06:20;;;;;;;14.75;4.97;;;;;;;14.66;44.82;101505.53;5019792;28;20148;-75
2021/03/26 12:09:36;;;;;;;11.05;4.97;;;;;;;14.67;43.22;101509.84;5016888;28;20479;-76
2021/03/26 12:12:05;;;;;;;11.98;4.43;;;;;;;14.58;44.13;101493.97;4908492;28;20079;-77
2021/03/26 12:14:45;;;;;;;17.90;5.05;;;;;;;14.79;43.96;101492.75;5021631;28;20092;-77
2021/03/26 12:17:20;;;;;;;13.60;4.82;;;;;;;15.05;43.35;101479.47;5016721;28;20065;-77
2021/03/26 12:24:00;;;;;;;14.23;4.90;;;;;;;15.62;42.02;101478.78;4979497;28;20060;-73
2021/03/26 12:26:34;;;;;;;18.27;4.40;;;;;;;15.57;41.94;101481.09;4986939;28;20120;-73
2021/03/26 12:29:18;;;;;;;13.57;4.18;;;;;;;15.23;41.90;101476.75;4994460;28;20058;-73
2021/03/26 12:32:21;;;;;;;11.68;4.63;;;;;;;15.05;42.96;101471.53;4992779;28;20092;-75
2021/03/26 12:34:59;;;;;;;14.57;5.00;;;;;;;15.16;43.11;101463.34;5012677;28;20119;-72
2021/03/26 12:37:51;;;;;;;15.95;4.82;;;;;;;14.95;42.49;101473.50;5027336;28;20061;-74
2021/03/26 12:40:20;;;;;;;14.15;4.82;;;;;;;14.76;43.09;101467.50;5013440;28;20282;-74
2021/03/26 12:42:54;;;;;;;15.88;5.25;;;;;;;15.22;42.84;101457.41;5021196;28;20542;-73
2021/03/26 12:45:58;;;;;;;17.13;5.10;;;;;;;15.45;41.88;101456.78;5003153;28;20089;-74
2021/03/26 12:48:43;;;;;;;13.70;4.57;;;;;;;15.15;42.05;101450.28;5018110;28;20106;-73
2021/03/26 12:51:26;;;;;;;12.30;5.28;;;;;;;15.60;41.04;101454.31;4998900;28;20066;-73
2021/03/26 12:54:01;;;;;;;8.73;4.78;;;;;;;15.59;41.02;101458.78;5003701;28;20061;-73
2021/03/26 12:56:38;;;;;;;11.15;4.72;;;;;;;15.18;41.04;101450.78;5001540;28;20058;-73
2021/03/26 12:59:41;;;;;;;16.38;5.18;;;;;;;15.47;40.97;101446.06;5026451;28;20475;-74
2021/03/26 13:02:30;;;;;;;13.07;5.63;;;;;;;15.41;40.53;101450.19;5004535;28;20081;-73
2021/03/26 13:05:01;;;;;;;11.85;5.47;;;;;;;15.48;41.29;101443.22;5021006;28;20768;-73
2021/03/26 13:07:34;;;;;;;15.25;5.78;;;;;;;15.59;40.69;101445.56;5016007;28;20085;-74
2021/03/26 13:10:27;;;;;;;18.77;6.35;;;;;;;15.67;40.23;101446.56;5024886;28;20096;-73
2021/03/26 13:13:04;;;;;;;13.32;6.80;;;;;;;15.57;40.86;101431.69;5018282;28;20548;-73
2021/03/26 13:15:34;;;;;;;15.80;7.03;;;;;;;15.48;41.38;101434.50;5030731;28;20056;-73
2021/03/26 13:18:01;;;;;;;20.58;7.57;;;;;;;15.33;41.57;101416.63;5001157;28;20060;-73
2021/03/26 13:20:28;;;;;;;12.77;7.22;;;;;;;15.26;42.65;101422.72;5012509;28;20156;-73
2021/03/26 13:22:59;;;;;;;21.05;7.53;;;;;;;15.13;42.17;101404.69;5004923;28;20058;-73
2021/03/26 13:25:48;;;;;;;21.58;7.82;;;;;;;15.38;42.86;101400.28;5022186;28;20471;-73
2021/03/26 13:28:23;;;;;;;15.82;7.78;;;;;;;15.34;42.70;101412.16;5015511;28;20111;-73
2021/03/26 13:30:52;;;;;;;15.55;8.07;;;;;;;14.98;42.56;101407.97;5003584;28;20111;-73
2021/03/26 13:33:35;;;;;;;18.38;6.90;;;;;;;15.02;42.13;101406.66;5040418;28;20524;-74
2021/03/26 13:36:30;;;;;;;17.10;6.80;;;;;;;14.90;42.09;101401.84;5028582;28;20818;-74
2021/03/26 13:39:01;;;;;;;14.57;7.18;;;;;;;14.76;42.30;101406.75;5030827;28;20111;-73
2021/03/26 13:41:32;;;;;;;14.80;6.80;;;;;;;14.66;42.50;101387.53;5026548;28;20057;-72
2021/03/26 13:44:18;;;;;;;15.30;6.00;;;;;;;14.77;41.97;101389.09;5016337;28;20053;-72
2021/03/26 13:46:48;;;;;;;19.23;6.72;;;;;;;15.01;41.87;101391.81;5030099;28;20099;-73
2021/03/26 13:49:22;;;;;;;11.63;5.00;;;;;;;15.22;40.74;101385.22;5032294;28;20053;-76
2021/03/26 13:51:58;;;;;;;15.70;5.85;;;;;;;15.08;40.54;101393.78;5025278;28;20123;-73
2021/03/26 13:54:47;;;;;;;13.85;6.22;;;;;;;15.19;40.88;101393.47;5011522;28;20449;-73
2021/03/26 13:57:19;;;;;;;14.18;6.43;;;;;;;15.29;40.86;101375.66;5007255;28;20116;-73
2021/03/26 13:59:52;;;;;;;10.38;5.75;;;;;;;15.15;41.04;101366.56;5038557;28;20103;-73
2021/03/26 14:02:33;;;;;;;16.40;6.68;;;;;;;14.92;41.46;101370.81;5028330;28;20057;-73
2021/03/26 14:05:16;;;;;;;12.73;6.70;;;;;;;14.96;41.31;101367.69;5014283;28;20516;-73
2021/03/26 14:07:55;;;;;;;15.35;5.45;;;;;;;14.74;41.71;101374.41;5017682;28;20420;-73
2021/03/26 14:10:40;;;;;;;13.23;4.88;;;;;;;14.58;41.32;101369.88;5030903;28;20464;-73
2021/03/26 14:13:15;;;;;;;11.43;3.80;;;;;;;14.74;40.89;101366.47;5027326;28;21003;-73
2021/03/26 14:15:42;;;;;;;16.40;4.38;;;;;;;14.95;40.99;101400.34;5026152;28;20064;-73
2021/03/26 14:18:31;;;;;;;16.70;4.30;;;;;;;14.75;40.86;101378.66;5031626;28;20080;-73
2021/03/26 14:21:20;;;;;;;10.57;3.85;;;;;;;15.05;40.57;101365.03;5014008;28;20568;-73
2021/03/26 14:23:52;;;;;;;10.50;3.65;;;;;;;15.12;40.55;101364.22;5014320;28;20053;-72
2021/03/26 14:26:23;;;;;;;8.73;3.63;;;;;;;15.19;40.23;101361.75;5003859;28;20052;-73
2021/03/26 14:28:54;;;;;;;7.53;3.53;;;;;;;15.20;40.19;101345.75;5018088;28;20135;-73
2021/03/26 14:31:50;;;;;;;9.38;3.25;;;;;;;14.85;40.00;101353.94;5031584;28;20248;-72
2021/03/26 14:34:24;;;;;;;11.45;3.38;;;;;;;14.84;39.63;101347.84;5012551;28;20061;-73
2021/03/26 14:36:54;;;;;;;8.43;3.40;;;;;;;14.84;40.05;101353.13;5018977;28;20068;-73
2021/03/26 14:39:32;;;;;;;8.80;3.65;;;;;;;14.93;40.87;101354.78;5018469;28;20996;-73
2021/03/26 14:42:01;;;;;;;7.88;3.28;;;;;;;14.97;39.98;101348.19;5029875;28;20088;-73
2021/03/26 14:44:44;;;;;;;12.13;3.55;;;;;;;14.94;40.00;101342.41;5012654;28;20058;-74
2021/03/26 14:47:13;;;;;;;9.30;3.65;;;;;;;15.10;40.35;101344.25;5030202;28;20119;-73
2021/03/26 14:50:02;;;;;;;11.27;3.47;;;;;;;14.66;40.92;101340.00;5018325;28;20068;-73
2021/03/26 14:52:37;;;;;;;8.27;3.67;;;;;;;14.91;40.38;101343.56;5012873;28;20056;-73
2021/03/26 14:55:12;;;;;;;13.55;3.67;;;;;;;14.67;40.59;101341.69;5001996;28;20058;-73
2021/03/26 14:57:55;;;;;;;8.55;3.38;;;;;;;14.54;39.98;101342.09;5018466;28;20045;-73
2021/03/26 15:00:28;;;;;;;9.57;3.45;;;;;;;14.50;40.32;101340.75;5002918;28;20117;-73
2021/03/26 15:03:09;;;;;;;6.93;3.08;;;;;;;14.71;40.41;101342.19;5016460;28;20054;-74
2021/03/26 15:05:57;;;;;;;11.50;3.80;;;;;;;14.80;39.38;101334.13;5002819;28;20057;-74
2021/03/26 15:08:37;;;;;;;9.13;2.97;;;;;;;14.98;39.62;101328.72;5006384;28;20065;-74
2021/03/26 15:11:05;;;;;;;13.50;3.58;;;;;;;14.79;40.56;101335.09;5015529;28;20681;-74
2021/03/26 15:13:50;;;;;;;10.77;3.65;;;;;;;14.74;40.90;101333.94;5016472;28;20108;-73
2021/03/26 15:16:34;;;;;;;11.02;3.22;;;;;;;14.66;40.39;101336.56;5024817;28;20512;-74
2021/03/26 15:19:21;;;;;;;9.63;3.55;;;;;;;14.36;40.67;101330.81;5010349;28;20452;-74
2021/03/26 15:21:57;;;;;;;11.80;4.35;;;;;;;14.27;40.38;101322.06;5026810;28;20061;-74
2021/03/26 15:24:45;;;;;;;12.43;3.30;;;;;;;14.30;40.99;101318.25;5021962;28;20063;-75
2021/03/26 15:27:31;;;;;;;7.95;3.45;;;;;;;14.24;41.14;101320.53;5032167;28;20139;-75
2021/03/26 15:30:07;;;;;;;14.43;3.53;;;;;;;14.37;41.36;101314.00;5015498;28;20051;-74
2021/03/26 15:32:52;;;;;;;7.68;3.60;;;;;;;14.22;41.04;101322.50;5034732;28;20065;-75
2021/03/26 15:35:30;;;;;;;8.65;3.67;;;;;;;14.10;41.61;101307.13;5009098;28;20079;-73
2021/03/26 15:38:08;;;;;;;10.35;4.22;;;;;;;14.04;42.01;101304.13;5032101;28;20167;-74
2021/03/26 15:40:45;;;;;;;10.00;3.90;;;;;;;14.10;41.64;101309.78;5017746;28;20066;-74
2021/03/26 15:43:14;;;;;;;10.63;4.35;;;;;;;13.98;41.68;101290.75;5023987;28;20569;-74
2021/03/26 15:45:50;;;;;;;9.45;4.00;;;;;;;14.12;41.97;101302.53;5017753;28;20167;-74
2021/03/26 15:48:39;;;;;;;8.55;4.22;;;;;;;14.01;42.47;101293.91;5002565;28;20119;-74
2021/03/26 15:51:18;;;;;;;9.00;4.13;;;;;;;14.01;43.01;101286.00;5014591;28;20061;-74
2021/03/26 15:54:03;;;;;;;8.43;4.72;;;;;;;14.03;42.63;101294.56;5036607;28;20053;-74
2021/03/26 15:56:41;;;;;;;13.07;5.15;;;;;;;14.03;42.79;101286.66;5027894;28;20070;-74
2021/03/26 15:59:30;;;;;;;13.35;5.50;;;;;;;13.86;42.79;101295.47;5025659;28;20050;-73
2021/03/26 16:02:15;;;;;;;18.83;6.50;;;;;;;13.71;42.79;101297.84;5018700;28;20083;-73
2021/03/26 16:05:01;;;;;;;15.55;5.38;;;;;;;13.73;43.81;101303.78;5007191;28;20488;-73
2021/03/26 16:08:10;;;;;;;13.50;5.13;;;;;;;13.75;43.55;101301.00;4994353;28;20064;-74
2021/03/26 16:11:05;;;;;;;14.98;5.32;;;;;;;13.58;43.57;101297.41;5029375;28;20052;-73